Nearby METAR Reports

 

KAVP - Avoca/Wilkes B., Pennsylvania, USA
Distance from station: N 16mi, 25km
Updated: 07/23/2018 1:03pm
Mostly cloudy
Mostly cloudy
 Wind from SE
Wind: SE 9 mph , 15 km/h
Temperature: 79°F , 26°C
Dew Point: 72°F , 22°C
Humidity: 79%
Barometer: 30.05 inHg , 1017.6 hPa
Clouds: Mostly cloudy
Visibility: 9 miles , 14 km
Cloud details: Partly cloudy 2700 ft
Mostly cloudy 3700 ft
Mostly cloudy 5000 ft
2018/07/23 17:03 KAVP 231703Z 14008KT 110V180 9SM SCT027 BKN037 BKN050 26/22 A3005 RMK AO2 T02610222
KMPO - Mt. Pocono, Pennsylvania, USA
Distance from station: E 20mi, 33km
Updated: 07/23/2018 12:53pm
Light rain, Overcast
Light rain, Overcast
 Wind from ESE
Wind: ESE 15 mph , 24 km/h, Gust: 23 mph , 37 km/h
Temperature: 72°F , 22°C
Dew Point: 72°F , 22°C
Humidity: 100%
Barometer: 30.13 inHg , 1020.3 hPa
Summary: Light rain
Clouds: Overcast
Visibility: 8 miles , 13 km
Cloud details: Overcast 400 ft
2018/07/23 16:53 KMPO 231653Z AUTO 12013G20KT 8SM -RA OVC004 22/22 A3013 RMK AO2 RAB47 CIG 002V008 SLP193 P0000 T02170217
 
KABE - Allentown, Pennsylvania, USA
Distance from station: SSE 36mi, 58km
Updated: 07/23/2018 1:11pm
Mostly cloudy
Mostly cloudy
 Wind from SSE
Wind: SSE 12 mph , 19 km/h
Temperature: 84°F , 29°C
Heat Index: 89°F , 32°C
Dew Point: 72°F , 22°C
Humidity: 66%
Barometer: 30.05 inHg , 1017.6 hPa
Clouds: Mostly cloudy
Visibility: 10 miles , 16 km
Cloud details: Partly cloudy 2200 ft
Mostly cloudy 2900 ft
Mostly cloudy 4000 ft
2018/07/23 17:11 KABE 231711Z 15010KT 10SM SCT022 BKN029 BKN040 29/22 A3005 RMK AO2 T02890222
KXLL - Allentown Queen, Pennsylvania, USA
Distance from station: SSE 41mi, 65km
Updated: 07/23/2018 1:15pm
Overcast
Overcast
 Wind from SSE
Wind: SSE 9 mph , 15 km/h, Gust: 16 mph , 26 km/h
Temperature: 82°F , 28°C
Heat Index: 87°F , 31°C
Dew Point: 73°F , 23°C
Humidity: 74%
Barometer: 30.06 inHg , 1017.9 hPa
Clouds: Overcast
Visibility: 10 miles , 16 km
Cloud details: Partly cloudy 2000 ft
Mostly cloudy 2400 ft
Overcast 6000 ft
2018/07/23 17:15 KXLL 231715Z AUTO 15008G14KT 10SM SCT020 BKN024 OVC060 28/23 A3006 RMK AO2